sensor_id;sensor_type;location;lat;lon;timestamp;pressure;altitude;pressure_sealevel;temperature;humidity
78117;BME280;69042;59.120;37.904;2024-03-23T00:55:11;98539.75;;;5.11;64.81
78117;BME280;69042;59.120;37.904;2024-03-23T00:57:37;98525.13;;;5.10;65.05
78117;BME280;69042;59.120;37.904;2024-03-23T01:00:05;98526.06;;;5.09;64.84
78117;BME280;69042;59.120;37.904;2024-03-23T01:02:32;98530.38;;;5.09;65.01
78117;BME280;69042;59.120;37.904;2024-03-23T01:04:59;98514.00;;;5.08;65.02
78117;BME280;69042;59.120;37.904;2024-03-23T01:07:25;98514.84;;;5.09;65.26
78117;BME280;69042;59.120;37.904;2024-03-23T01:09:51;98508.81;;;5.08;65.20
78117;BME280;69042;59.120;37.904;2024-03-23T01:12:19;98505.41;;;5.08;65.12
78117;BME280;69042;59.120;37.904;2024-03-23T01:14:45;98505.41;;;5.08;65.49
78117;BME280;69042;59.120;37.904;2024-03-23T01:17:11;98499.38;;;5.07;65.13
78117;BME280;69042;59.120;37.904;2024-03-23T01:19:37;98496.81;;;5.07;65.36
78117;BME280;69042;59.120;37.904;2024-03-23T01:22:05;98489.09;;;5.06;65.28
78117;BME280;69042;59.120;37.904;2024-03-23T01:24:31;98487.34;;;5.06;65.71
78117;BME280;69042;59.120;37.904;2024-03-23T01:26:57;98479.72;;;5.03;65.60
78117;BME280;69042;59.120;37.904;2024-03-23T01:29:23;98479.72;;;5.03;65.94
78117;BME280;69042;59.120;37.904;2024-03-23T01:31:50;98470.25;;;5.02;66.17
78117;BME280;69042;59.120;37.904;2024-03-23T01:34:16;98465.19;;;5.00;65.95
78117;BME280;69042;59.120;37.904;2024-03-23T01:36:42;98460.13;;;4.97;66.07
78117;BME280;69042;59.120;37.904;2024-03-23T01:39:08;98462.66;;;4.99;66.06
78117;BME280;69042;59.120;37.904;2024-03-23T01:41:37;98444.59;;;4.97;66.22
78117;BME280;69042;59.120;37.904;2024-03-23T01:44:08;98440.41;;;4.95;66.20
78117;BME280;69042;59.120;37.904;2024-03-23T01:46:38;98433.63;;;4.92;66.47
78117;BME280;69042;59.120;37.904;2024-03-23T01:49:05;98428.44;;;4.92;66.49
78117;BME280;69042;59.120;37.904;2024-03-23T01:51:32;98422.50;;;4.90;65.93
78117;BME280;69042;59.120;37.904;2024-03-23T01:54:00;98424.09;;;4.93;66.20
78117;BME280;69042;59.120;37.904;2024-03-23T01:56:33;98421.50;;;4.93;66.40
78117;BME280;69042;59.120;37.904;2024-03-23T01:59:06;98421.50;;;4.93;66.60
78117;BME280;69042;59.120;37.904;2024-03-23T02:01:34;98411.25;;;4.91;66.84
78117;BME280;69042;59.120;37.904;2024-03-23T02:04:02;98409.50;;;4.92;66.93
78117;BME280;69042;59.120;37.904;2024-03-23T02:06:28;98411.16;;;4.93;66.79
78117;BME280;69042;59.120;37.904;2024-03-23T02:08:55;98397.38;;;4.92;66.95
78117;BME280;69042;59.120;37.904;2024-03-23T02:11:21;98392.28;;;4.91;67.03
78117;BME280;69042;59.120;37.904;2024-03-23T02:13:47;98383.69;;;4.90;66.83
78117;BME280;69042;59.120;37.904;2024-03-23T02:16:14;98384.44;;;4.92;66.80
78117;BME280;69042;59.120;37.904;2024-03-23T02:18:40;98378.44;;;4.92;66.98
78117;BME280;69042;59.120;37.904;2024-03-23T02:21:06;98371.56;;;4.91;66.80
78117;BME280;69042;59.120;37.904;2024-03-23T02:23:32;98364.72;;;4.90;67.13
78117;BME280;69042;59.120;37.904;2024-03-23T02:25:59;98356.13;;;4.89;66.92
78117;BME280;69042;59.120;37.904;2024-03-23T02:28:25;98355.22;;;4.90;66.93
78117;BME280;69042;59.120;37.904;2024-03-23T02:30:52;98349.13;;;4.91;66.89
78117;BME280;69042;59.120;37.904;2024-03-23T02:33:18;98342.22;;;4.92;66.88
78117;BME280;69042;59.120;37.904;2024-03-23T02:35:47;98344.72;;;4.93;67.15
78117;BME280;69042;59.120;37.904;2024-03-23T02:38:13;98342.81;;;4.97;67.12
78117;BME280;69042;59.120;37.904;2024-03-23T02:40:39;98337.56;;;4.98;67.22
78117;BME280;69042;59.120;37.904;2024-03-23T02:43:05;98339.25;;;4.99;66.94
78117;BME280;69042;59.120;37.904;2024-03-23T02:45:32;98334.84;;;5.01;66.96
78117;BME280;69042;59.120;37.904;2024-03-23T02:47:58;98327.06;;;5.01;66.94
78117;BME280;69042;59.120;37.904;2024-03-23T02:50:24;98327.06;;;5.01;66.91
78117;BME280;69042;59.120;37.904;2024-03-23T02:52:50;98335.66;;;5.02;66.97
78117;BME280;69042;59.120;37.904;2024-03-23T02:55:16;98327.91;;;5.02;67.14
78117;BME280;69042;59.120;37.904;2024-03-23T02:57:43;98319.41;;;5.00;66.96
78117;BME280;69042;59.120;37.904;2024-03-23T03:00:09;98321.13;;;4.99;66.85
78117;BME280;69042;59.120;37.904;2024-03-23T03:02:36;98309.94;;;4.99;67.10
78117;BME280;69042;59.120;37.904;2024-03-23T03:05:04;98301.41;;;4.97;67.20
78117;BME280;69042;59.120;37.904;2024-03-23T03:07:32;98302.34;;;4.96;66.86
78117;BME280;69042;59.120;37.904;2024-03-23T03:09:58;98301.41;;;4.97;67.49
78117;BME280;69042;59.120;37.904;2024-03-23T03:12:24;98293.94;;;4.91;67.04
78117;BME280;69042;59.120;37.904;2024-03-23T03:14:50;98286.88;;;4.94;67.14
78117;BME280;69042;59.120;37.904;2024-03-23T03:17:17;98279.16;;;4.93;67.17
78117;BME280;69042;59.120;37.904;2024-03-23T03:19:43;98263.75;;;4.91;67.23
78117;BME280;69042;59.120;37.904;2024-03-23T03:22:09;98268.06;;;4.91;67.27
78117;BME280;69042;59.120;37.904;2024-03-23T03:24:35;98266.31;;;4.91;67.21
78117;BME280;69042;59.120;37.904;2024-03-23T03:27:01;98261.16;;;4.91;67.08
78117;BME280;69042;59.120;37.904;2024-03-23T03:29:29;98261.97;;;4.92;67.40
78117;BME280;69042;59.120;37.904;2024-03-23T03:32:02;98256.88;;;4.90;67.63
78117;BME280;69042;59.120;37.904;2024-03-23T03:34:28;98252.53;;;4.91;67.27
78117;BME280;69042;59.120;37.904;2024-03-23T03:36:56;98245.84;;;4.87;67.56
78117;BME280;69042;59.120;37.904;2024-03-23T03:39:22;98245.91;;;4.85;67.65
78117;BME280;69042;59.120;37.904;2024-03-23T03:41:49;98245.09;;;4.85;67.86
78117;BME280;69042;59.120;37.904;2024-03-23T03:44:15;98237.31;;;4.85;67.74
78117;BME280;69042;59.120;37.904;2024-03-23T03:46:41;98235.63;;;4.84;67.98
78117;BME280;69042;59.120;37.904;2024-03-23T03:49:08;98233.13;;;4.82;68.23
78117;BME280;69042;59.120;37.904;2024-03-23T03:51:34;98223.69;;;4.81;68.17
78117;BME280;69042;59.120;37.904;2024-03-23T03:54:01;98219.44;;;4.80;68.24
78117;BME280;69042;59.120;37.904;2024-03-23T03:56:28;98228.91;;;4.79;68.73
78117;BME280;69042;59.120;37.904;2024-03-23T03:58:54;98216.91;;;4.78;68.77
78117;BME280;69042;59.120;37.904;2024-03-23T04:01:20;98223.84;;;4.78;68.74
78117;BME280;69042;59.120;37.904;2024-03-23T04:03:46;98215.38;;;4.74;68.52
78117;BME280;69042;59.120;37.904;2024-03-23T04:06:18;98211.97;;;4.74;69.08
78117;BME280;69042;59.120;37.904;2024-03-23T04:08:45;98215.47;;;4.73;69.07
78117;BME280;69042;59.120;37.904;2024-03-23T04:11:11;98202.53;;;4.73;68.95
78117;BME280;69042;59.120;37.904;2024-03-23T04:13:37;98201.78;;;4.71;69.38
78117;BME280;69042;59.120;37.904;2024-03-23T04:16:04;98201.78;;;4.71;69.11
78117;BME280;69042;59.120;37.904;2024-03-23T04:18:30;98204.44;;;4.69;69.35
78117;BME280;69042;59.120;37.904;2024-03-23T04:21:00;98185.56;;;4.67;69.43
78117;BME280;69042;59.120;37.904;2024-03-23T04:23:26;98185.50;;;4.69;69.81
78117;BME280;69042;59.120;37.904;2024-03-23T04:25:52;98180.38;;;4.67;69.63
78117;BME280;69042;59.120;37.904;2024-03-23T04:28:19;98186.25;;;4.71;70.04
78117;BME280;69042;59.120;37.904;2024-03-23T04:30:46;98173.31;;;4.71;69.68
78117;BME280;69042;59.120;37.904;2024-03-23T04:33:13;98174.09;;;4.73;69.76
78117;BME280;69042;59.120;37.904;2024-03-23T04:35:39;98167.00;;;4.76;69.87
78117;BME280;69042;59.120;37.904;2024-03-23T04:38:05;98156.56;;;4.78;70.01
78117;BME280;69042;59.120;37.904;2024-03-23T04:40:31;98158.22;;;4.79;69.72
78117;BME280;69042;59.120;37.904;2024-03-23T04:42:58;98148.66;;;4.81;69.82
78117;BME280;69042;59.120;37.904;2024-03-23T04:45:24;98145.22;;;4.80;70.35
78117;BME280;69042;59.120;37.904;2024-03-23T04:47:50;98140.94;;;4.79;70.16
78117;BME280;69042;59.120;37.904;2024-03-23T04:50:16;98139.28;;;4.78;70.43
78117;BME280;69042;59.120;37.904;2024-03-23T04:52:43;98137.63;;;4.77;69.94
78117;BME280;69042;59.120;37.904;2024-03-23T04:55:09;98136.72;;;4.78;69.89
78117;BME280;69042;59.120;37.904;2024-03-23T04:57:35;98132.34;;;4.79;70.26
78117;BME280;69042;59.120;37.904;2024-03-23T05:00:02;98123.69;;;4.80;70.11
78117;BME280;69042;59.120;37.904;2024-03-23T05:02:30;98120.25;;;4.79;70.61
78117;BME280;69042;59.120;37.904;2024-03-23T05:04:58;98130.53;;;4.81;70.13
78117;BME280;69042;59.120;37.904;2024-03-23T05:07:24;98123.59;;;4.82;70.15
78117;BME280;69042;59.120;37.904;2024-03-23T05:09:50;98118.44;;;4.82;70.42
78117;BME280;69042;59.120;37.904;2024-03-23T05:12:16;98121.00;;;4.82;70.30
78117;BME280;69042;59.120;37.904;2024-03-23T05:14:43;98108.00;;;4.83;70.88
78117;BME280;69042;59.120;37.904;2024-03-23T05:17:09;98106.19;;;4.85;70.53
78117;BME280;69042;59.120;37.904;2024-03-23T05:19:35;98096.59;;;4.87;70.69
78117;BME280;69042;59.120;37.904;2024-03-23T05:22:01;98097.50;;;4.86;70.67
78117;BME280;69042;59.120;37.904;2024-03-23T05:24:27;98093.25;;;4.85;70.32
78117;BME280;69042;59.120;37.904;2024-03-23T05:26:54;98090.66;;;4.85;70.41
78117;BME280;69042;59.120;37.904;2024-03-23T05:29:21;98088.06;;;4.85;70.47
78117;BME280;69042;59.120;37.904;2024-03-23T05:31:49;98078.72;;;4.83;70.31
78117;BME280;69042;59.120;37.904;2024-03-23T05:34:16;98077.88;;;4.82;70.44
78117;BME280;69042;59.120;37.904;2024-03-23T05:36:42;98075.38;;;4.80;70.70
78117;BME280;69042;59.120;37.904;2024-03-23T05:39:09;98066.84;;;4.78;70.47
78117;BME280;69042;59.120;37.904;2024-03-23T05:41:35;98063.44;;;4.78;71.00
78117;BME280;69042;59.120;37.904;2024-03-23T05:44:02;98066.09;;;4.76;71.01
78117;BME280;69042;59.120;37.904;2024-03-23T05:46:28;98057.56;;;4.74;70.62
78117;BME280;69042;59.120;37.904;2024-03-23T05:49:01;98052.50;;;4.73;71.06
78117;BME280;69042;59.120;37.904;2024-03-23T05:51:28;98055.16;;;4.71;70.87
78117;BME280;69042;59.120;37.904;2024-03-23T05:53:54;98042.34;;;4.68;70.71
78117;BME280;69042;59.120;37.904;2024-03-23T05:56:20;98045.03;;;4.67;70.92
78117;BME280;69042;59.120;37.904;2024-03-23T05:58:47;98039.09;;;4.65;71.06
78117;BME280;69042;59.120;37.904;2024-03-23T06:01:14;98041.75;;;4.63;71.02
78117;BME280;69042;59.120;37.904;2024-03-23T06:03:40;98038.34;;;4.63;71.15
78117;BME280;69042;59.120;37.904;2024-03-23T06:06:07;98031.41;;;4.63;71.00
78117;BME280;69042;59.120;37.904;2024-03-23T06:08:38;98035.59;;;4.66;71.24
78117;BME280;69042;59.120;37.904;2024-03-23T06:11:04;98026.00;;;4.68;71.16
78117;BME280;69042;59.120;37.904;2024-03-23T06:13:34;98019.00;;;4.70;70.90
78117;BME280;69042;59.120;37.904;2024-03-23T06:16:04;98023.28;;;4.71;70.63
78117;BME280;69042;59.120;37.904;2024-03-23T06:18:30;98022.28;;;4.73;71.06
78117;BME280;69042;59.120;37.904;2024-03-23T06:20:56;98023.28;;;4.71;70.92
78117;BME280;69042;59.120;37.904;2024-03-23T06:23:23;98019.00;;;4.70;71.21
78117;BME280;69042;59.120;37.904;2024-03-23T06:25:49;98007.00;;;4.69;70.66
78117;BME280;69042;59.120;37.904;2024-03-23T06:28:16;98001.72;;;4.70;70.96
78117;BME280;69042;59.120;37.904;2024-03-23T06:30:42;97998.91;;;4.75;71.00
78117;BME280;69042;59.120;37.904;2024-03-23T06:33:08;97993.72;;;4.75;70.91
78117;BME280;69042;59.120;37.904;2024-03-23T06:35:34;97995.34;;;4.77;71.12
78117;BME280;69042;59.120;37.904;2024-03-23T06:38:00;97989.22;;;4.78;71.10
78117;BME280;69042;59.120;37.904;2024-03-23T06:40:27;97983.31;;;4.76;71.13
78117;BME280;69042;59.120;37.904;2024-03-23T06:42:53;97982.81;;;4.86;70.80
78117;BME280;69042;59.120;37.904;2024-03-23T06:45:20;97980.81;;;4.91;71.07
78117;BME280;69042;59.120;37.904;2024-03-23T06:47:49;97976.38;;;4.93;70.97
78117;BME280;69042;59.120;37.904;2024-03-23T06:50:16;97965.88;;;4.96;70.88
78117;BME280;69042;59.120;37.904;2024-03-23T06:52:42;97967.53;;;4.97;70.70
78117;BME280;69042;59.120;37.904;2024-03-23T06:55:08;97966.66;;;4.98;70.76
78117;BME280;69042;59.120;37.904;2024-03-23T06:57:35;97961.28;;;5.01;70.81
78117;BME280;69042;59.120;37.904;2024-03-23T07:00:01;97956.88;;;5.03;70.67
78117;BME280;69042;59.120;37.904;2024-03-23T07:02:27;97953.28;;;5.06;70.71
78117;BME280;69042;59.120;37.904;2024-03-23T07:04:54;97955.69;;;5.09;70.43
78117;BME280;69042;59.120;37.904;2024-03-23T07:07:21;97944.50;;;5.08;70.65
78117;BME280;69042;59.120;37.904;2024-03-23T07:09:47;97938.31;;;5.11;70.65
78117;BME280;69042;59.120;37.904;2024-03-23T07:12:14;97937.94;;;5.18;70.96
78117;BME280;69042;59.120;37.904;2024-03-23T07:14:40;97940.25;;;5.23;70.83
78117;BME280;69042;59.120;37.904;2024-03-23T07:17:07;97932.41;;;5.25;70.83
78117;BME280;69042;59.120;37.904;2024-03-23T07:19:33;97929.06;;;5.38;70.71
78117;BME280;69042;59.120;37.904;2024-03-23T07:21:59;97930.44;;;5.44;70.59
78117;BME280;69042;59.120;37.904;2024-03-23T07:24:25;97922.53;;;5.47;70.42
78117;BME280;69042;59.120;37.904;2024-03-23T07:26:52;97915.59;;;5.48;70.27
78117;BME280;69042;59.120;37.904;2024-03-23T07:29:20;97907.06;;;5.46;69.97
78117;BME280;69042;59.120;37.904;2024-03-23T07:31:46;97908.06;;;5.43;70.13
78117;BME280;69042;59.120;37.904;2024-03-23T07:34:12;97906.56;;;5.39;70.16
78117;BME280;69042;59.120;37.904;2024-03-23T07:36:39;97900.81;;;5.34;70.24
78117;BME280;69042;59.120;37.904;2024-03-23T07:39:05;97895.16;;;5.27;69.99
78117;BME280;69042;59.120;37.904;2024-03-23T07:41:31;97903.19;;;5.22;70.22
78117;BME280;69042;59.120;37.904;2024-03-23T07:43:58;97888.72;;;5.18;70.37
78117;BME280;69042;59.120;37.904;2024-03-23T07:46:24;97890.00;;;5.11;70.12
78117;BME280;69042;59.120;37.904;2024-03-23T07:48:51;97890.00;;;5.11;70.64
78117;BME280;69042;59.120;37.904;2024-03-23T07:51:20;97889.31;;;5.08;70.83
78117;BME280;69042;59.120;37.904;2024-03-23T07:53:47;97886.75;;;5.08;70.70
78117;BME280;69042;59.120;37.904;2024-03-23T07:56:15;97888.56;;;5.06;70.73
78117;BME280;69042;59.120;37.904;2024-03-23T07:58:42;97890.47;;;5.02;70.85
78117;BME280;69042;59.120;37.904;2024-03-23T08:01:10;97896.66;;;4.99;70.88
78117;BME280;69042;59.120;37.904;2024-03-23T08:03:37;97891.50;;;4.99;71.11
78117;BME280;69042;59.120;37.904;2024-03-23T08:06:11;97885.50;;;4.99;70.94
78117;BME280;69042;59.120;37.904;2024-03-23T08:08:38;97880.31;;;4.99;71.20
78117;BME280;69042;59.120;37.904;2024-03-23T08:11:04;97882.91;;;4.99;71.28
78117;BME280;69042;59.120;37.904;2024-03-23T08:13:31;97880.38;;;4.97;71.30
78117;BME280;69042;59.120;37.904;2024-03-23T08:16:01;97881.31;;;4.96;71.30
78117;BME280;69042;59.120;37.904;2024-03-23T08:18:27;97872.81;;;4.94;71.47
78117;BME280;69042;59.120;37.904;2024-03-23T08:23:28;97875.66;;;4.90;71.28
78117;BME280;69042;59.120;37.904;2024-03-23T08:26:01;97877.56;;;4.86;71.04
78117;BME280;69042;59.120;37.904;2024-03-23T08:28:27;97874.25;;;4.84;71.62
78117;BME280;69042;59.120;37.904;2024-03-23T08:30:54;97873.50;;;4.82;71.23
78117;BME280;69042;59.120;37.904;2024-03-23T08:33:21;97869.16;;;4.83;71.40
78117;BME280;69042;59.120;37.904;2024-03-23T08:35:54;97869.16;;;4.83;71.60
78117;BME280;69042;59.120;37.904;2024-03-23T08:38:25;97868.97;;;4.86;71.76
78117;BME280;69042;59.120;37.904;2024-03-23T08:41:02;97861.97;;;4.88;72.02
78117;BME280;69042;59.120;37.904;2024-03-23T08:43:30;97856.53;;;4.92;71.82
78117;BME280;69042;59.120;37.904;2024-03-23T08:46:13;97854.69;;;4.94;72.04
78117;BME280;69042;59.120;37.904;2024-03-23T08:48:41;97849.19;;;5.00;71.93
78117;BME280;69042;59.120;37.904;2024-03-23T08:51:10;97846.41;;;5.04;72.13
78117;BME280;69042;59.120;37.904;2024-03-23T08:53:37;97848.00;;;5.06;72.13
78117;BME280;69042;59.120;37.904;2024-03-23T08:56:04;97835.66;;;5.11;72.10
78117;BME280;69042;59.120;37.904;2024-03-23T08:58:32;97833.34;;;5.21;72.31
78117;BME280;69042;59.120;37.904;2024-03-23T09:01:12;97826.91;;;5.28;72.57
78117;BME280;69042;59.120;37.904;2024-03-23T09:03:39;97834.13;;;5.37;72.01
78117;BME280;69042;59.120;37.904;2024-03-23T09:06:09;97829.53;;;5.42;72.02
78117;BME280;69042;59.120;37.904;2024-03-23T09:08:36;97821.50;;;5.47;71.91
78117;BME280;69042;59.120;37.904;2024-03-23T09:11:04;97818.81;;;5.49;72.00
78117;BME280;69042;59.120;37.904;2024-03-23T09:13:35;97825.41;;;5.54;72.12
78117;BME280;69042;59.120;37.904;2024-03-23T09:16:03;97818.28;;;5.58;72.02
78117;BME280;69042;59.120;37.904;2024-03-23T09:18:34;97819.97;;;5.59;71.82
78117;BME280;69042;59.120;37.904;2024-03-23T09:21:02;97813.00;;;5.59;71.84
78117;BME280;69042;59.120;37.904;2024-03-23T09:23:28;97813.56;;;5.64;71.90
78117;BME280;69042;59.120;37.904;2024-03-23T09:25:54;97816.81;;;5.68;72.08
78117;BME280;69042;59.120;37.904;2024-03-23T09:28:22;97800.25;;;5.71;72.00
78117;BME280;69042;59.120;37.904;2024-03-23T09:30:48;97807.69;;;5.77;71.84
78117;BME280;69042;59.120;37.904;2024-03-23T09:33:14;97816.81;;;5.82;72.10
78117;BME280;69042;59.120;37.904;2024-03-23T09:35:41;97813.06;;;5.88;72.04
78117;BME280;69042;59.120;37.904;2024-03-23T09:38:08;97811.78;;;5.95;71.84
78117;BME280;69042;59.120;37.904;2024-03-23T09:40:40;97810.69;;;5.99;71.85
78117;BME280;69042;59.120;37.904;2024-03-23T09:43:07;97815.75;;;6.01;71.81
78117;BME280;69042;59.120;37.904;2024-03-23T09:45:38;97807.06;;;6.02;71.76
78117;BME280;69042;59.120;37.904;2024-03-23T09:48:05;97809.56;;;6.03;71.77
78117;BME280;69042;59.120;37.904;2024-03-23T09:50:32;97812.88;;;6.05;71.81
78117;BME280;69042;59.120;37.904;2024-03-23T09:52:58;97808.44;;;6.08;72.05
78117;BME280;69042;59.120;37.904;2024-03-23T09:55:25;97810.84;;;6.11;71.98
78117;BME280;69042;59.120;37.904;2024-03-23T09:57:51;97805.47;;;6.14;71.82
78117;BME280;69042;59.120;37.904;2024-03-23T10:00:17;97807.97;;;6.15;71.94
78117;BME280;69042;59.120;37.904;2024-03-23T10:02:45;97807.03;;;6.16;72.06
78117;BME280;69042;59.120;37.904;2024-03-23T10:05:22;97804.38;;;6.18;71.95
78117;BME280;69042;59.120;37.904;2024-03-23T10:07:50;97803.81;;;6.27;72.11
78117;BME280;69042;59.120;37.904;2024-03-23T10:10:16;97805.19;;;6.33;72.29
78117;BME280;69042;59.120;37.904;2024-03-23T10:12:47;97812.88;;;6.34;71.98
78117;BME280;69042;59.120;37.904;2024-03-23T10:15:24;97811.94;;;6.35;71.96
78117;BME280;69042;59.120;37.904;2024-03-23T10:17:51;97807.50;;;6.37;71.85
78117;BME280;69042;59.120;37.904;2024-03-23T10:20:21;97808.88;;;6.43;72.02
78117;BME280;69042;59.120;37.904;2024-03-23T10:22:50;97807.00;;;6.45;71.89
78117;BME280;69042;59.120;37.904;2024-03-23T10:25:22;97806.28;;;6.43;71.79
78117;BME280;69042;59.120;37.904;2024-03-23T10:27:59;97801.91;;;6.43;71.73
78117;BME280;69042;59.120;37.904;2024-03-23T10:30:28;97801.81;;;6.45;71.77
78117;BME280;69042;59.120;37.904;2024-03-23T10:33:08;97798.75;;;6.53;72.18
78117;BME280;69042;59.120;37.904;2024-03-23T10:35:34;97800.66;;;6.78;72.62
78117;BME280;69042;59.120;37.904;2024-03-23T10:38:04;97804.72;;;7.22;73.01
78117;BME280;69042;59.120;37.904;2024-03-23T10:40:30;97796.06;;;7.61;72.76
78117;BME280;69042;59.120;37.904;2024-03-23T10:42:58;97794.41;;;7.86;71.71
78117;BME280;69042;59.120;37.904;2024-03-23T10:45:24;97793.53;;;7.98;71.15
78117;BME280;69042;59.120;37.904;2024-03-23T10:47:51;97796.69;;;7.90;70.53
78117;BME280;69042;59.120;37.904;2024-03-23T10:50:17;97790.44;;;7.80;69.85
78117;BME280;69042;59.120;37.904;2024-03-23T10:52:47;97797.28;;;7.81;70.09
78117;BME280;69042;59.120;37.904;2024-03-23T10:55:17;97792.31;;;7.78;69.81
78117;BME280;69042;59.120;37.904;2024-03-23T10:57:56;97793.56;;;7.72;69.90
78117;BME280;69042;59.120;37.904;2024-03-23T11:00:24;97791.59;;;7.63;69.71
78117;BME280;69042;59.120;37.904;2024-03-23T11:02:51;97783.25;;;7.58;70.12
78117;BME280;69042;59.120;37.904;2024-03-23T11:07:53;97791.81;;;7.86;70.64
78117;BME280;69042;59.120;37.904;2024-03-23T11:10:30;97785.25;;;7.93;69.70
78117;BME280;69042;59.120;37.904;2024-03-23T11:12:57;97787.53;;;7.85;69.13
78117;BME280;69042;59.120;37.904;2024-03-23T11:15:24;97787.72;;;7.69;69.43
78117;BME280;69042;59.120;37.904;2024-03-23T11:18:06;97789.28;;;7.59;69.75
78117;BME280;69042;59.120;37.904;2024-03-23T11:20:36;97794.78;;;7.54;69.53
78117;BME280;69042;59.120;37.904;2024-03-23T11:23:04;97805.69;;;7.46;69.54
78117;BME280;69042;59.120;37.904;2024-03-23T11:25:31;97799.03;;;7.42;69.45
78117;BME280;69042;59.120;37.904;2024-03-23T11:27:58;97795.63;;;7.42;69.80
78117;BME280;69042;59.120;37.904;2024-03-23T11:30:35;97789.19;;;7.60;70.15
78117;BME280;69042;59.120;37.904;2024-03-23T11:33:03;97787.19;;;7.89;70.07
78117;BME280;69042;59.120;37.904;2024-03-23T11:35:36;97789.38;;;8.08;69.89
78117;BME280;69042;59.120;37.904;2024-03-23T11:38:13;97792.16;;;8.31;69.67
78117;BME280;69042;59.120;37.904;2024-03-23T11:40:41;97780.63;;;8.59;69.70
78117;BME280;69042;59.120;37.904;2024-03-23T11:43:18;97783.41;;;8.93;69.39
78117;BME280;69042;59.120;37.904;2024-03-23T11:45:51;97771.09;;;9.19;68.51
78117;BME280;69042;59.120;37.904;2024-03-23T11:48:20;97768.22;;;9.46;68.38
78117;BME280;69042;59.120;37.904;2024-03-23T11:50:48;97773.59;;;9.78;68.11
78117;BME280;69042;59.120;37.904;2024-03-23T11:53:17;97770.28;;;9.99;66.40
78117;BME280;69042;59.120;37.904;2024-03-23T11:55:49;97775.50;;;9.99;65.19
78117;BME280;69042;59.120;37.904;2024-03-23T11:58:20;97770.75;;;9.93;63.93
78117;BME280;69042;59.120;37.904;2024-03-23T12:00:58;97785.44;;;9.83;64.21
78117;BME280;69042;59.120;37.904;2024-03-23T12:03:26;97774.41;;;9.79;63.60
78117;BME280;69042;59.120;37.904;2024-03-23T12:06:02;97774.75;;;9.63;63.22
78117;BME280;69042;59.120;37.904;2024-03-23T12:11:17;97775.19;;;9.34;63.50
78117;BME280;69042;59.120;37.904;2024-03-23T12:13:45;97783.88;;;9.22;63.34
78117;BME280;69042;59.120;37.904;2024-03-23T12:16:19;97784.34;;;9.16;62.81
78117;BME280;69042;59.120;37.904;2024-03-23T12:18:49;97774.00;;;9.03;63.20
78117;BME280;69042;59.120;37.904;2024-03-23T12:21:17;97781.88;;;8.90;63.29
78117;BME280;69042;59.120;37.904;2024-03-23T12:23:44;97781.47;;;8.84;63.72
78117;BME280;69042;59.120;37.904;2024-03-23T12:26:14;97778.78;;;8.85;63.96
78117;BME280;69042;59.120;37.904;2024-03-23T12:28:41;97770.72;;;8.88;63.63
78117;BME280;69042;59.120;37.904;2024-03-23T12:31:07;97776.91;;;8.87;63.62
78117;BME280;69042;59.120;37.904;2024-03-23T12:33:34;97771.78;;;8.86;63.83
78117;BME280;69042;59.120;37.904;2024-03-23T12:36:00;97776.09;;;8.98;64.62
78117;BME280;69042;59.120;37.904;2024-03-23T12:38:26;97780.34;;;9.23;64.69
78117;BME280;69042;59.120;37.904;2024-03-23T12:40:52;97776.72;;;9.37;63.96
78117;BME280;69042;59.120;37.904;2024-03-23T12:43:18;97787.13;;;9.26;62.85
78117;BME280;69042;59.120;37.904;2024-03-23T12:45:49;97790.78;;;8.99;62.34
78117;BME280;69042;59.120;37.904;2024-03-23T12:48:16;97788.19;;;8.75;62.70
78117;BME280;69042;59.120;37.904;2024-03-23T12:50:42;97793.03;;;8.55;62.95
78117;BME280;69042;59.120;37.904;2024-03-23T12:53:09;97787.22;;;8.39;63.46
78117;BME280;69042;59.120;37.904;2024-03-23T12:55:36;97794.03;;;8.29;63.83
78117;BME280;69042;59.120;37.904;2024-03-23T12:58:02;97786.25;;;8.16;63.85
78117;BME280;69042;59.120;37.904;2024-03-23T13:00:29;97799.97;;;8.05;63.76
78117;BME280;69042;59.120;37.904;2024-03-23T13:02:55;97788.75;;;7.92;63.83
78117;BME280;69042;59.120;37.904;2024-03-23T13:05:21;97788.78;;;7.79;64.07
78117;BME280;69042;59.120;37.904;2024-03-23T13:07:48;97798.75;;;7.72;64.18
78117;BME280;69042;59.120;37.904;2024-03-23T13:10:14;97812.25;;;7.65;64.91
78117;BME280;69042;59.120;37.904;2024-03-23T13:12:41;97825.56;;;7.60;64.83
78117;BME280;69042;59.120;37.904;2024-03-23T13:15:09;97835.41;;;7.42;64.96
78117;BME280;69042;59.120;37.904;2024-03-23T13:17:36;97812.81;;;7.17;65.06
78117;BME280;69042;59.120;37.904;2024-03-23T13:20:02;97814.34;;;7.07;66.03
78117;BME280;69042;59.120;37.904;2024-03-23T13:22:30;97818.59;;;7.08;66.30
78117;BME280;69042;59.120;37.904;2024-03-23T13:24:56;97812.59;;;7.07;66.83
78117;BME280;69042;59.120;37.904;2024-03-23T13:27:22;97815.91;;;7.09;67.13
78117;BME280;69042;59.120;37.904;2024-03-23T13:29:48;97809.47;;;7.15;67.62
78117;BME280;69042;59.120;37.904;2024-03-23T13:32:16;97807.66;;;7.30;67.31
78117;BME280;69042;59.120;37.904;2024-03-23T13:34:42;97805.78;;;7.45;67.49
78117;BME280;69042;59.120;37.904;2024-03-23T13:37:08;97806.13;;;7.53;67.36
78117;BME280;69042;59.120;37.904;2024-03-23T13:39:35;97808.06;;;7.49;66.66
78117;BME280;69042;59.120;37.904;2024-03-23T13:42:02;97810.19;;;7.57;66.93
78117;BME280;69042;59.120;37.904;2024-03-23T13:44:29;97815.91;;;7.75;67.38
78117;BME280;69042;59.120;37.904;2024-03-23T13:46:55;97811.50;;;8.27;68.79
78117;BME280;69042;59.120;37.904;2024-03-23T13:49:30;97809.78;;;8.88;67.35
78117;BME280;69042;59.120;37.904;2024-03-23T13:51:57;97814.13;;;9.01;64.81
78117;BME280;69042;59.120;37.904;2024-03-23T13:54:27;97810.56;;;8.78;64.81
78117;BME280;69042;59.120;37.904;2024-03-23T13:56:55;97817.81;;;8.61;64.57
78117;BME280;69042;59.120;37.904;2024-03-23T13:59:22;97823.50;;;8.42;64.84
78117;BME280;69042;59.120;37.904;2024-03-23T14:01:51;97821.28;;;8.36;65.19
78117;BME280;69042;59.120;37.904;2024-03-23T14:04:17;97813.66;;;9.07;68.33